Olympia Regional Airport Olympia US
ICAO: KOLM
IATA: OLM
Category: Medium
Scheduled Services: No

Elevation: 209 ft
TransAlt. 18000 ft.

Airport Communications:
SEATTLE APP/DEP:121.1
ASOS:135.725
ATIS:135.375
CTAF:124.4
GND:121.6
TWR:124.4
UNICOM:122.95

KOLM Zoom In..

If you have problems with the map follow the link
https://www.worldairports.se/pages/airport.php?
ICAO=KOLM

Runways:

(A) RW 08 length 4157 ft width 150 ft
---- / hdg 85

(B) RW 17 length 5500 ft width 150 ft
ILS 111.90 / hdg 172

(C) RW 26 length 4157 ft width 150 ft
---- / hdg 265

(D) RW 35 length 5500 ft width 150 ft
---- / hdg 352

Location; KOLM
Day. 16 / Time. 01.54 Zulu
* Altimeter: 30.27
* Temperature: 04° c. 39.2°f.
* Wind from: 000° Speed 00 kn.
Dewpoint: 03° c.
Visibility: 10 Statute Miles.
Clouds: Few 2200 ft.
Clouds: Broken 2800 ft.
Clouds: Broken 3600 ft.
Conditions: Light Rain.

KOLM 160154Z 00000KT 10SM -RA FEW022 BKN028 BKN036 04/03 A3027 RMK AO2 RAB14 SLP250 P0001 T00440033 $


Wind - Calm.

 
 
jpsmedia worldairports.se 2019   terms of use